sensor_id;sensor_type;location;lat;lon;timestamp;temperature;humidity
11762;DHT22;5938;47.098;15.474;2022-11-15T00:01:43;8.30;99.90
11762;DHT22;5938;47.098;15.474;2022-11-15T00:05:47;8.20;99.90
11762;DHT22;5938;47.098;15.474;2022-11-15T00:09:52;8.20;99.90
11762;DHT22;5938;47.098;15.474;2022-11-15T00:13:55;8.20;99.90
11762;DHT22;5938;47.098;15.474;2022-11-15T00:17:59;8.10;99.90
11762;DHT22;5938;47.098;15.474;2022-11-15T00:22:02;8.10;99.90
11762;DHT22;5938;47.098;15.474;2022-11-15T00:26:12;8.10;99.90
11762;DHT22;5938;47.098;15.474;2022-11-15T00:30:16;8.00;99.90
11762;DHT22;5938;47.098;15.474;2022-11-15T00:34:19;7.90;99.90
11762;DHT22;5938;47.098;15.474;2022-11-15T00:38:23;8.00;99.90
11762;DHT22;5938;47.098;15.474;2022-11-15T00:42:27;7.90;99.90
11762;DHT22;5938;47.098;15.474;2022-11-15T00:46:31;7.90;99.90
11762;DHT22;5938;47.098;15.474;2022-11-15T00:50:34;7.90;99.90
11762;DHT22;5938;47.098;15.474;2022-11-15T00:54:38;7.80;99.90
11762;DHT22;5938;47.098;15.474;2022-11-15T00:58:43;7.80;99.90
11762;DHT22;5938;47.098;15.474;2022-11-15T01:02:46;7.80;99.90
11762;DHT22;5938;47.098;15.474;2022-11-15T01:06:50;7.80;99.90
11762;DHT22;5938;47.098;15.474;2022-11-15T01:10:53;7.80;99.90
11762;DHT22;5938;47.098;15.474;2022-11-15T01:14:58;7.80;99.90
11762;DHT22;5938;47.098;15.474;2022-11-15T01:19:01;7.70;99.90
11762;DHT22;5938;47.098;15.474;2022-11-15T01:23:06;7.70;99.90
11762;DHT22;5938;47.098;15.474;2022-11-15T01:27:10;7.60;99.90
11762;DHT22;5938;47.098;15.474;2022-11-15T01:31:16;7.70;99.90
11762;DHT22;5938;47.098;15.474;2022-11-15T01:35:20;7.80;99.90
11762;DHT22;5938;47.098;15.474;2022-11-15T01:39:23;7.90;99.90
11762;DHT22;5938;47.098;15.474;2022-11-15T01:43:28;7.90;99.90
11762;DHT22;5938;47.098;15.474;2022-11-15T01:47:37;7.80;99.90
11762;DHT22;5938;47.098;15.474;2022-11-15T01:51:41;7.90;99.90
11762;DHT22;5938;47.098;15.474;2022-11-15T01:55:45;7.90;99.90
11762;DHT22;5938;47.098;15.474;2022-11-15T01:59:48;7.90;99.90
11762;DHT22;5938;47.098;15.474;2022-11-15T02:03:57;7.90;99.90
11762;DHT22;5938;47.098;15.474;2022-11-15T02:08:01;7.90;99.90
11762;DHT22;5938;47.098;15.474;2022-11-15T02:12:06;7.80;99.90
11762;DHT22;5938;47.098;15.474;2022-11-15T02:16:16;7.80;99.90
11762;DHT22;5938;47.098;15.474;2022-11-15T02:25:22;7.70;99.90
11762;DHT22;5938;47.098;15.474;2022-11-15T02:29:44;7.80;99.90
11762;DHT22;5938;47.098;15.474;2022-11-15T02:33:54;7.80;99.90
11762;DHT22;5938;47.098;15.474;2022-11-15T02:38:08;7.80;99.90
11762;DHT22;5938;47.098;15.474;2022-11-15T02:42:17;7.80;99.90
11762;DHT22;5938;47.098;15.474;2022-11-15T02:46:43;7.70;99.90
11762;DHT22;5938;47.098;15.474;2022-11-15T02:51:07;7.70;99.90
11762;DHT22;5938;47.098;15.474;2022-11-15T02:55:26;7.70;99.90
11762;DHT22;5938;47.098;15.474;2022-11-15T03:04:10;7.50;99.90
11762;DHT22;5938;47.098;15.474;2022-11-15T03:08:26;7.50;99.90
11762;DHT22;5938;47.098;15.474;2022-11-15T03:12:36;7.50;99.90
11762;DHT22;5938;47.098;15.474;2022-11-15T03:16:47;7.60;99.90
11762;DHT22;5938;47.098;15.474;2022-11-15T03:20:52;7.60;99.90
11762;DHT22;5938;47.098;15.474;2022-11-15T03:25:02;7.50;99.90
11762;DHT22;5938;47.098;15.474;2022-11-15T03:29:11;7.50;99.90
11762;DHT22;5938;47.098;15.474;2022-11-15T03:33:16;7.50;99.90
11762;DHT22;5938;47.098;15.474;2022-11-15T03:37:25;7.40;99.90
11762;DHT22;5938;47.098;15.474;2022-11-15T03:41:43;7.30;99.90
11762;DHT22;5938;47.098;15.474;2022-11-15T03:45:52;7.30;99.90
11762;DHT22;5938;47.098;15.474;2022-11-15T03:49:59;7.30;99.90
11762;DHT22;5938;47.098;15.474;2022-11-15T03:54:04;7.30;99.90
11762;DHT22;5938;47.098;15.474;2022-11-15T03:58:09;7.20;99.90
11762;DHT22;5938;47.098;15.474;2022-11-15T04:02:13;7.20;99.90
11762;DHT22;5938;47.098;15.474;2022-11-15T04:06:16;7.30;99.90
11762;DHT22;5938;47.098;15.474;2022-11-15T04:10:20;7.30;99.90
11762;DHT22;5938;47.098;15.474;2022-11-15T04:14:24;7.20;99.90
11762;DHT22;5938;47.098;15.474;2022-11-15T04:18:28;7.20;99.90
11762;DHT22;5938;47.098;15.474;2022-11-15T04:22:31;7.30;99.90
11762;DHT22;5938;47.098;15.474;2022-11-15T04:26:52;7.30;99.90
11762;DHT22;5938;47.098;15.474;2022-11-15T04:30:56;7.30;99.90
11762;DHT22;5938;47.098;15.474;2022-11-15T04:35:00;7.30;99.90
11762;DHT22;5938;47.098;15.474;2022-11-15T04:39:03;7.30;99.90
11762;DHT22;5938;47.098;15.474;2022-11-15T04:43:06;7.30;99.90
11762;DHT22;5938;47.098;15.474;2022-11-15T04:47:11;7.40;99.90
11762;DHT22;5938;47.098;15.474;2022-11-15T04:51:15;7.40;99.90
11762;DHT22;5938;47.098;15.474;2022-11-15T04:55:19;7.30;99.90
11762;DHT22;5938;47.098;15.474;2022-11-15T04:59:22;7.30;99.90
11762;DHT22;5938;47.098;15.474;2022-11-15T05:03:27;7.40;99.90
11762;DHT22;5938;47.098;15.474;2022-11-15T05:07:48;7.40;99.90
11762;DHT22;5938;47.098;15.474;2022-11-15T05:11:51;7.40;99.90
11762;DHT22;5938;47.098;15.474;2022-11-15T05:15:54;7.40;99.90
11762;DHT22;5938;47.098;15.474;2022-11-15T05:19:59;7.30;99.90
11762;DHT22;5938;47.098;15.474;2022-11-15T05:24:03;7.30;99.90
11762;DHT22;5938;47.098;15.474;2022-11-15T05:28:06;7.30;99.90
11762;DHT22;5938;47.098;15.474;2022-11-15T05:32:12;7.20;99.90
11762;DHT22;5938;47.098;15.474;2022-11-15T05:36:18;7.30;99.90
11762;DHT22;5938;47.098;15.474;2022-11-15T05:40:24;7.40;99.90
11762;DHT22;5938;47.098;15.474;2022-11-15T05:44:28;7.40;99.90
11762;DHT22;5938;47.098;15.474;2022-11-15T05:48:32;7.40;99.90
11762;DHT22;5938;47.098;15.474;2022-11-15T05:52:38;7.40;99.90
11762;DHT22;5938;47.098;15.474;2022-11-15T05:56:41;7.30;99.90
11762;DHT22;5938;47.098;15.474;2022-11-15T06:00:45;7.30;99.90
11762;DHT22;5938;47.098;15.474;2022-11-15T06:04:49;7.40;99.90
11762;DHT22;5938;47.098;15.474;2022-11-15T06:08:53;7.30;99.90
11762;DHT22;5938;47.098;15.474;2022-11-15T06:12:57;7.30;99.90
11762;DHT22;5938;47.098;15.474;2022-11-15T06:17:01;7.30;99.90
11762;DHT22;5938;47.098;15.474;2022-11-15T06:21:11;7.30;99.90
11762;DHT22;5938;47.098;15.474;2022-11-15T06:25:16;7.30;99.90
11762;DHT22;5938;47.098;15.474;2022-11-15T06:29:20;7.30;99.90
11762;DHT22;5938;47.098;15.474;2022-11-15T06:33:23;7.20;99.90
11762;DHT22;5938;47.098;15.474;2022-11-15T06:37:27;7.30;99.90
11762;DHT22;5938;47.098;15.474;2022-11-15T06:41:34;7.30;99.90
11762;DHT22;5938;47.098;15.474;2022-11-15T06:45:37;7.30;99.90
11762;DHT22;5938;47.098;15.474;2022-11-15T06:49:41;7.40;99.90
11762;DHT22;5938;47.098;15.474;2022-11-15T06:53:45;7.50;99.90
11762;DHT22;5938;47.098;15.474;2022-11-15T06:57:52;7.50;99.90
11762;DHT22;5938;47.098;15.474;2022-11-15T07:01:55;7.60;99.90
11762;DHT22;5938;47.098;15.474;2022-11-15T07:05:58;7.50;99.90
11762;DHT22;5938;47.098;15.474;2022-11-15T07:10:08;7.50;99.90
11762;DHT22;5938;47.098;15.474;2022-11-15T07:14:13;7.50;99.90
11762;DHT22;5938;47.098;15.474;2022-11-15T07:18:16;7.50;99.90
11762;DHT22;5938;47.098;15.474;2022-11-15T07:22:20;7.60;99.90
11762;DHT22;5938;47.098;15.474;2022-11-15T07:26:23;7.70;99.90
11762;DHT22;5938;47.098;15.474;2022-11-15T07:30:28;7.70;99.90
11762;DHT22;5938;47.098;15.474;2022-11-15T07:34:32;7.70;99.90
11762;DHT22;5938;47.098;15.474;2022-11-15T07:38:35;7.70;99.90
11762;DHT22;5938;47.098;15.474;2022-11-15T07:42:43;7.60;99.90
11762;DHT22;5938;47.098;15.474;2022-11-15T07:46:57;7.70;99.90
11762;DHT22;5938;47.098;15.474;2022-11-15T07:51:00;7.90;99.90
11762;DHT22;5938;47.098;15.474;2022-11-15T07:55:05;7.90;99.90
11762;DHT22;5938;47.098;15.474;2022-11-15T07:59:08;7.80;99.90
11762;DHT22;5938;47.098;15.474;2022-11-15T08:03:14;8.00;99.90
11762;DHT22;5938;47.098;15.474;2022-11-15T08:07:18;8.00;99.90
11762;DHT22;5938;47.098;15.474;2022-11-15T08:11:21;8.00;99.90
11762;DHT22;5938;47.098;15.474;2022-11-15T08:15:25;8.20;99.90
11762;DHT22;5938;47.098;15.474;2022-11-15T08:19:30;8.20;99.90
11762;DHT22;5938;47.098;15.474;2022-11-15T08:23:33;8.30;99.90
11762;DHT22;5938;47.098;15.474;2022-11-15T08:27:37;8.30;99.90
11762;DHT22;5938;47.098;15.474;2022-11-15T08:31:40;8.50;99.90
11762;DHT22;5938;47.098;15.474;2022-11-15T08:35:47;8.60;99.90
11762;DHT22;5938;47.098;15.474;2022-11-15T08:40:21;8.50;99.90
11762;DHT22;5938;47.098;15.474;2022-11-15T08:44:25;8.60;99.90
11762;DHT22;5938;47.098;15.474;2022-11-15T08:48:30;8.50;99.90
11762;DHT22;5938;47.098;15.474;2022-11-15T08:52:35;8.70;99.90
11762;DHT22;5938;47.098;15.474;2022-11-15T08:56:38;8.90;99.90
11762;DHT22;5938;47.098;15.474;2022-11-15T09:00:42;9.10;99.90
11762;DHT22;5938;47.098;15.474;2022-11-15T09:04:45;9.20;99.90
11762;DHT22;5938;47.098;15.474;2022-11-15T09:08:50;9.30;99.90
11762;DHT22;5938;47.098;15.474;2022-11-15T09:12:53;9.40;99.90
11762;DHT22;5938;47.098;15.474;2022-11-15T09:16:57;9.60;99.90
11762;DHT22;5938;47.098;15.474;2022-11-15T09:21:01;9.70;99.90
11762;DHT22;5938;47.098;15.474;2022-11-15T09:25:08;9.80;99.90
11762;DHT22;5938;47.098;15.474;2022-11-15T09:29:12;9.90;99.90
11762;DHT22;5938;47.098;15.474;2022-11-15T09:33:15;9.80;99.90
11762;DHT22;5938;47.098;15.474;2022-11-15T09:37:19;9.80;99.90
11762;DHT22;5938;47.098;15.474;2022-11-15T09:41:50;9.70;99.90
11762;DHT22;5938;47.098;15.474;2022-11-15T09:46:03;9.50;99.90
11762;DHT22;5938;47.098;15.474;2022-11-15T09:50:11;9.40;99.90
11762;DHT22;5938;47.098;15.474;2022-11-15T09:54:25;9.50;99.90
11762;DHT22;5938;47.098;15.474;2022-11-15T09:58:56;9.50;99.90
11762;DHT22;5938;47.098;15.474;2022-11-15T10:03:11;9.40;99.90
11762;DHT22;5938;47.098;15.474;2022-11-15T10:07:17;9.30;99.90
11762;DHT22;5938;47.098;15.474;2022-11-15T10:11:23;9.30;99.90
11762;DHT22;5938;47.098;15.474;2022-11-15T10:15:44;9.40;99.90
11762;DHT22;5938;47.098;15.474;2022-11-15T10:20:00;9.50;99.90
11762;DHT22;5938;47.098;15.474;2022-11-15T10:24:11;9.60;99.90
11762;DHT22;5938;47.098;15.474;2022-11-15T10:28:17;9.70;99.90
11762;DHT22;5938;47.098;15.474;2022-11-15T10:32:22;9.90;99.90
11762;DHT22;5938;47.098;15.474;2022-11-15T10:36:25;10.10;99.90
11762;DHT22;5938;47.098;15.474;2022-11-15T10:40:30;10.20;99.90
11762;DHT22;5938;47.098;15.474;2022-11-15T10:44:43;10.20;99.90
11762;DHT22;5938;47.098;15.474;2022-11-15T10:48:48;9.80;99.90
11762;DHT22;5938;47.098;15.474;2022-11-15T10:52:52;9.70;99.90
11762;DHT22;5938;47.098;15.474;2022-11-15T10:56:57;9.70;99.90
11762;DHT22;5938;47.098;15.474;2022-11-15T11:01:16;9.80;99.90
11762;DHT22;5938;47.098;15.474;2022-11-15T11:05:28;10.10;99.90
11762;DHT22;5938;47.098;15.474;2022-11-15T11:09:41;10.00;99.90
11762;DHT22;5938;47.098;15.474;2022-11-15T11:13:45;9.60;99.90
11762;DHT22;5938;47.098;15.474;2022-11-15T11:17:57;9.60;99.90
11762;DHT22;5938;47.098;15.474;2022-11-15T11:22:12;9.60;99.90
11762;DHT22;5938;47.098;15.474;2022-11-15T11:26:33;9.50;99.90
11762;DHT22;5938;47.098;15.474;2022-11-15T11:30:46;9.50;99.90
11762;DHT22;5938;47.098;15.474;2022-11-15T11:34:58;9.60;99.90
11762;DHT22;5938;47.098;15.474;2022-11-15T11:39:21;9.80;99.90
11762;DHT22;5938;47.098;15.474;2022-11-15T11:43:34;9.90;99.90
11762;DHT22;5938;47.098;15.474;2022-11-15T11:47:43;10.00;99.90
11762;DHT22;5938;47.098;15.474;2022-11-15T11:51:53;10.00;99.90
11762;DHT22;5938;47.098;15.474;2022-11-15T11:56:03;10.10;99.90
11762;DHT22;5938;47.098;15.474;2022-11-15T12:00:16;10.30;99.90
11762;DHT22;5938;47.098;15.474;2022-11-15T12:04:24;10.30;99.90
11762;DHT22;5938;47.098;15.474;2022-11-15T12:08:35;10.10;99.90
11762;DHT22;5938;47.098;15.474;2022-11-15T12:12:51;10.10;99.90
11762;DHT22;5938;47.098;15.474;2022-11-15T12:16:57;10.10;99.90
11762;DHT22;5938;47.098;15.474;2022-11-15T12:21:05;10.10;99.90
11762;DHT22;5938;47.098;15.474;2022-11-15T12:25:16;10.10;99.90
11762;DHT22;5938;47.098;15.474;2022-11-15T12:29:26;9.90;99.90
11762;DHT22;5938;47.098;15.474;2022-11-15T12:33:37;9.90;99.90
11762;DHT22;5938;47.098;15.474;2022-11-15T12:37:50;9.70;99.90
11762;DHT22;5938;47.098;15.474;2022-11-15T12:47:03;9.90;99.90
11762;DHT22;5938;47.098;15.474;2022-11-15T12:51:08;9.90;99.90
11762;DHT22;5938;47.098;15.474;2022-11-15T12:55:32;9.90;99.90
11762;DHT22;5938;47.098;15.474;2022-11-15T12:59:49;9.80;99.90
11762;DHT22;5938;47.098;15.474;2022-11-15T13:04:23;9.80;99.90
11762;DHT22;5938;47.098;15.474;2022-11-15T13:08:45;9.60;99.90
11762;DHT22;5938;47.098;15.474;2022-11-15T13:12:57;9.60;99.90
11762;DHT22;5938;47.098;15.474;2022-11-15T13:17:01;9.40;99.90
11762;DHT22;5938;47.098;15.474;2022-11-15T13:21:20;9.40;99.90
11762;DHT22;5938;47.098;15.474;2022-11-15T13:25:54;9.30;99.90
11762;DHT22;5938;47.098;15.474;2022-11-15T13:30:13;9.20;99.90
11762;DHT22;5938;47.098;15.474;2022-11-15T13:34:28;9.10;99.90
11762;DHT22;5938;47.098;15.474;2022-11-15T13:38:58;9.00;99.90
11762;DHT22;5938;47.098;15.474;2022-11-15T13:43:23;9.10;99.90
11762;DHT22;5938;47.098;15.474;2022-11-15T13:47:30;9.10;99.90
11762;DHT22;5938;47.098;15.474;2022-11-15T13:51:38;9.10;99.90
11762;DHT22;5938;47.098;15.474;2022-11-15T13:55:44;9.00;99.90
11762;DHT22;5938;47.098;15.474;2022-11-15T13:59:50;8.90;99.90
11762;DHT22;5938;47.098;15.474;2022-11-15T14:03:57;8.90;99.90
11762;DHT22;5938;47.098;15.474;2022-11-15T14:08:03;8.70;99.90
11762;DHT22;5938;47.098;15.474;2022-11-15T14:12:29;8.80;99.90
11762;DHT22;5938;47.098;15.474;2022-11-15T14:16:34;8.80;99.90
11762;DHT22;5938;47.098;15.474;2022-11-15T14:20:39;8.80;99.90
11762;DHT22;5938;47.098;15.474;2022-11-15T14:24:44;8.70;99.90
11762;DHT22;5938;47.098;15.474;2022-11-15T14:28:49;8.80;99.90
11762;DHT22;5938;47.098;15.474;2022-11-15T14:32:52;8.80;99.90
11762;DHT22;5938;47.098;15.474;2022-11-15T14:36:56;8.80;99.90
11762;DHT22;5938;47.098;15.474;2022-11-15T14:40:59;8.80;99.90
11762;DHT22;5938;47.098;15.474;2022-11-15T14:45:10;8.80;99.90
11762;DHT22;5938;47.098;15.474;2022-11-15T14:49:15;8.60;99.90
11762;DHT22;5938;47.098;15.474;2022-11-15T14:53:18;8.60;99.90
11762;DHT22;5938;47.098;15.474;2022-11-15T14:57:22;8.60;99.90
11762;DHT22;5938;47.098;15.474;2022-11-15T15:01:27;8.50;99.90
11762;DHT22;5938;47.098;15.474;2022-11-15T15:05:32;8.50;99.90
11762;DHT22;5938;47.098;15.474;2022-11-15T15:09:36;8.40;99.90
11762;DHT22;5938;47.098;15.474;2022-11-15T15:13:39;8.40;99.90
11762;DHT22;5938;47.098;15.474;2022-11-15T15:17:44;8.40;99.90
11762;DHT22;5938;47.098;15.474;2022-11-15T15:21:47;8.40;99.90
11762;DHT22;5938;47.098;15.474;2022-11-15T15:25:51;8.40;99.90
11762;DHT22;5938;47.098;15.474;2022-11-15T15:29:55;8.40;99.90
11762;DHT22;5938;47.098;15.474;2022-11-15T15:33:59;8.40;99.90
11762;DHT22;5938;47.098;15.474;2022-11-15T15:38:04;8.30;99.90
11762;DHT22;5938;47.098;15.474;2022-11-15T15:42:07;8.30;99.90
11762;DHT22;5938;47.098;15.474;2022-11-15T15:46:12;8.30;99.90
11762;DHT22;5938;47.098;15.474;2022-11-15T15:50:21;8.30;99.90
11762;DHT22;5938;47.098;15.474;2022-11-15T15:54:25;8.30;99.90
11762;DHT22;5938;47.098;15.474;2022-11-15T15:58:29;8.30;99.90
11762;DHT22;5938;47.098;15.474;2022-11-15T16:02:36;8.30;99.90
11762;DHT22;5938;47.098;15.474;2022-11-15T16:06:47;8.10;99.90
11762;DHT22;5938;47.098;15.474;2022-11-15T16:10:57;8.10;99.90
11762;DHT22;5938;47.098;15.474;2022-11-15T16:15:01;8.10;99.90
11762;DHT22;5938;47.098;15.474;2022-11-15T16:19:05;8.30;99.90
11762;DHT22;5938;47.098;15.474;2022-11-15T16:23:16;8.30;99.90
11762;DHT22;5938;47.098;15.474;2022-11-15T16:27:25;8.30;99.90
11762;DHT22;5938;47.098;15.474;2022-11-15T16:31:29;8.30;99.90
11762;DHT22;5938;47.098;15.474;2022-11-15T16:35:32;8.40;99.90
11762;DHT22;5938;47.098;15.474;2022-11-15T16:39:37;8.40;99.90
11762;DHT22;5938;47.098;15.474;2022-11-15T16:43:43;8.40;99.90
11762;DHT22;5938;47.098;15.474;2022-11-15T16:47:49;8.20;99.90
11762;DHT22;5938;47.098;15.474;2022-11-15T16:52:00;8.20;99.90
11762;DHT22;5938;47.098;15.474;2022-11-15T16:56:18;8.10;99.90
11762;DHT22;5938;47.098;15.474;2022-11-15T17:00:23;8.20;99.90
11762;DHT22;5938;47.098;15.474;2022-11-15T17:04:27;8.30;99.90
11762;DHT22;5938;47.098;15.474;2022-11-15T17:08:35;8.20;99.90
11762;DHT22;5938;47.098;15.474;2022-11-15T17:12:39;8.10;99.90
11762;DHT22;5938;47.098;15.474;2022-11-15T17:16:44;8.10;99.90
11762;DHT22;5938;47.098;15.474;2022-11-15T17:20:49;8.20;99.90
11762;DHT22;5938;47.098;15.474;2022-11-15T17:24:53;8.20;99.90
11762;DHT22;5938;47.098;15.474;2022-11-15T17:28:59;8.20;99.90
11762;DHT22;5938;47.098;15.474;2022-11-15T17:33:03;8.20;99.90
11762;DHT22;5938;47.098;15.474;2022-11-15T17:37:09;8.20;99.90
11762;DHT22;5938;47.098;15.474;2022-11-15T17:41:15;8.20;99.90
11762;DHT22;5938;47.098;15.474;2022-11-15T17:45:21;8.20;99.90
11762;DHT22;5938;47.098;15.474;2022-11-15T17:49:26;8.20;99.90
11762;DHT22;5938;47.098;15.474;2022-11-15T17:53:45;8.20;99.90
11762;DHT22;5938;47.098;15.474;2022-11-15T17:57:50;8.20;99.90
11762;DHT22;5938;47.098;15.474;2022-11-15T18:01:56;8.20;99.90
11762;DHT22;5938;47.098;15.474;2022-11-15T18:06:00;8.10;99.90
11762;DHT22;5938;47.098;15.474;2022-11-15T18:10:05;8.00;99.90
11762;DHT22;5938;47.098;15.474;2022-11-15T18:14:13;8.10;99.90
11762;DHT22;5938;47.098;15.474;2022-11-15T18:18:20;8.00;99.90
11762;DHT22;5938;47.098;15.474;2022-11-15T18:22:24;8.00;99.90
11762;DHT22;5938;47.098;15.474;2022-11-15T18:26:34;8.10;99.90
11762;DHT22;5938;47.098;15.474;2022-11-15T18:30:37;8.00;99.90
11762;DHT22;5938;47.098;15.474;2022-11-15T18:34:44;8.10;99.90
11762;DHT22;5938;47.098;15.474;2022-11-15T18:38:53;8.10;99.90
11762;DHT22;5938;47.098;15.474;2022-11-15T18:42:57;8.10;99.90
11762;DHT22;5938;47.098;15.474;2022-11-15T18:47:01;8.20;99.90
11762;DHT22;5938;47.098;15.474;2022-11-15T18:51:13;8.20;99.90
11762;DHT22;5938;47.098;15.474;2022-11-15T18:55:20;8.10;99.90
11762;DHT22;5938;47.098;15.474;2022-11-15T18:59:28;8.10;99.90
11762;DHT22;5938;47.098;15.474;2022-11-15T19:03:37;8.00;99.90
11762;DHT22;5938;47.098;15.474;2022-11-15T19:07:48;8.10;99.90
11762;DHT22;5938;47.098;15.474;2022-11-15T19:11:55;8.20;99.90
11762;DHT22;5938;47.098;15.474;2022-11-15T19:16:04;8.10;99.90
11762;DHT22;5938;47.098;15.474;2022-11-15T19:20:16;8.10;99.90
11762;DHT22;5938;47.098;15.474;2022-11-15T19:24:29;8.00;99.90
11762;DHT22;5938;47.098;15.474;2022-11-15T19:28:39;8.00;99.90
11762;DHT22;5938;47.098;15.474;2022-11-15T19:32:48;8.00;99.90
11762;DHT22;5938;47.098;15.474;2022-11-15T19:36:58;8.00;99.90
11762;DHT22;5938;47.098;15.474;2022-11-15T19:41:14;8.10;99.90
11762;DHT22;5938;47.098;15.474;2022-11-15T19:45:21;8.10;99.90
11762;DHT22;5938;47.098;15.474;2022-11-15T19:49:31;8.10;99.90
11762;DHT22;5938;47.098;15.474;2022-11-15T19:53:41;8.00;99.90
11762;DHT22;5938;47.098;15.474;2022-11-15T19:57:49;7.90;99.90
11762;DHT22;5938;47.098;15.474;2022-11-15T20:01:54;7.90;99.90
11762;DHT22;5938;47.098;15.474;2022-11-15T20:06:04;7.90;99.90
11762;DHT22;5938;47.098;15.474;2022-11-15T20:10:17;8.00;99.90
11762;DHT22;5938;47.098;15.474;2022-11-15T20:14:32;8.00;99.90
11762;DHT22;5938;47.098;15.474;2022-11-15T20:18:38;7.90;99.90
11762;DHT22;5938;47.098;15.474;2022-11-15T20:22:45;8.00;99.90
11762;DHT22;5938;47.098;15.474;2022-11-15T20:26:55;8.00;99.90
11762;DHT22;5938;47.098;15.474;2022-11-15T20:31:01;8.00;99.90
11762;DHT22;5938;47.098;15.474;2022-11-15T20:35:06;7.90;99.90
11762;DHT22;5938;47.098;15.474;2022-11-15T20:39:11;7.90;99.90
11762;DHT22;5938;47.098;15.474;2022-11-15T20:43:16;7.90;99.90
11762;DHT22;5938;47.098;15.474;2022-11-15T20:47:22;7.90;99.90
11762;DHT22;5938;47.098;15.474;2022-11-15T20:51:31;7.90;99.90
11762;DHT22;5938;47.098;15.474;2022-11-15T20:55:38;7.90;99.90
11762;DHT22;5938;47.098;15.474;2022-11-15T20:59:43;7.90;99.90
11762;DHT22;5938;47.098;15.474;2022-11-15T21:03:48;7.90;99.90
11762;DHT22;5938;47.098;15.474;2022-11-15T21:07:52;8.00;99.90
11762;DHT22;5938;47.098;15.474;2022-11-15T21:11:55;7.90;99.90
11762;DHT22;5938;47.098;15.474;2022-11-15T21:16:13;8.00;99.90
11762;DHT22;5938;47.098;15.474;2022-11-15T21:20:19;8.00;99.90
11762;DHT22;5938;47.098;15.474;2022-11-15T21:24:23;7.90;99.90
11762;DHT22;5938;47.098;15.474;2022-11-15T21:28:26;7.80;99.90
11762;DHT22;5938;47.098;15.474;2022-11-15T21:32:30;7.80;99.90
11762;DHT22;5938;47.098;15.474;2022-11-15T21:36:35;7.80;99.90
11762;DHT22;5938;47.098;15.474;2022-11-15T21:40:38;7.80;99.90
11762;DHT22;5938;47.098;15.474;2022-11-15T21:44:41;7.90;99.90
11762;DHT22;5938;47.098;15.474;2022-11-15T21:48:45;7.80;99.90
11762;DHT22;5938;47.098;15.474;2022-11-15T21:52:49;7.70;99.90
11762;DHT22;5938;47.098;15.474;2022-11-15T21:56:53;7.70;99.90
11762;DHT22;5938;47.098;15.474;2022-11-15T22:00:56;7.80;99.90
11762;DHT22;5938;47.098;15.474;2022-11-15T22:05:17;7.80;99.90
11762;DHT22;5938;47.098;15.474;2022-11-15T22:09:22;7.80;99.90
11762;DHT22;5938;47.098;15.474;2022-11-15T22:13:25;7.80;99.90
11762;DHT22;5938;47.098;15.474;2022-11-15T22:17:29;7.70;99.90
11762;DHT22;5938;47.098;15.474;2022-11-15T22:21:46;7.80;99.90
11762;DHT22;5938;47.098;15.474;2022-11-15T22:25:51;7.80;99.90
11762;DHT22;5938;47.098;15.474;2022-11-15T22:29:54;7.80;99.90
11762;DHT22;5938;47.098;15.474;2022-11-15T22:33:58;7.80;99.90
11762;DHT22;5938;47.098;15.474;2022-11-15T22:38:01;7.80;99.90
11762;DHT22;5938;47.098;15.474;2022-11-15T22:42:06;7.70;99.90
11762;DHT22;5938;47.098;15.474;2022-11-15T22:46:09;7.70;99.90
11762;DHT22;5938;47.098;15.474;2022-11-15T22:50:13;7.70;99.90
11762;DHT22;5938;47.098;15.474;2022-11-15T22:54:16;7.70;99.90
11762;DHT22;5938;47.098;15.474;2022-11-15T22:58:22;7.70;99.90
11762;DHT22;5938;47.098;15.474;2022-11-15T23:02:26;7.80;99.90
11762;DHT22;5938;47.098;15.474;2022-11-15T23:06:29;7.70;99.90
11762;DHT22;5938;47.098;15.474;2022-11-15T23:10:33;7.80;99.90
11762;DHT22;5938;47.098;15.474;2022-11-15T23:14:55;7.80;99.90
11762;DHT22;5938;47.098;15.474;2022-11-15T23:18:59;7.70;99.90
11762;DHT22;5938;47.098;15.474;2022-11-15T23:23:03;7.80;99.90
11762;DHT22;5938;47.098;15.474;2022-11-15T23:27:07;7.80;99.90
11762;DHT22;5938;47.098;15.474;2022-11-15T23:31:11;7.70;99.90
11762;DHT22;5938;47.098;15.474;2022-11-15T23:35:32;7.60;99.90
11762;DHT22;5938;47.098;15.474;2022-11-15T23:39:35;7.60;99.90
11762;DHT22;5938;47.098;15.474;2022-11-15T23:43:39;7.80;99.90
11762;DHT22;5938;47.098;15.474;2022-11-15T23:47:44;7.80;99.90
11762;DHT22;5938;47.098;15.474;2022-11-15T23:51:47;7.70;99.90
11762;DHT22;5938;47.098;15.474;2022-11-15T23:55:55;7.70;99.90
11762;DHT22;5938;47.098;15.474;2022-11-15T23:59:59;7.80;99.90
